createdAt,value
2023-02-09T00:00:52.418Z,-2.46
2023-02-09T00:16:01.449Z,-2.65
2023-02-09T00:31:10.484Z,-2.40
2023-02-09T00:46:13.214Z,-2.37
2023-02-09T01:01:15.738Z,-2.53
2023-02-09T01:16:18.532Z,-2.77
2023-02-09T01:31:34.788Z,-2.86
2023-02-09T01:46:38.813Z,-2.71
2023-02-09T02:01:42.871Z,-2.78
2023-02-09T02:17:15.822Z,-2.99
2023-02-09T02:32:38.819Z,-2.85
2023-02-09T02:47:49.498Z,-2.82
2023-02-09T03:03:15.840Z,-3.09
2023-02-09T03:19:01.917Z,-2.97
2023-02-09T03:34:06.170Z,-2.92
2023-02-09T03:49:09.806Z,-3.17
2023-02-09T04:04:12.730Z,-3.17
2023-02-09T04:19:29.695Z,-2.91
2023-02-09T04:34:32.290Z,-3.17
2023-02-09T04:49:34.781Z,-3.53
2023-02-09T05:04:37.305Z,-3.47
2023-02-09T05:19:39.670Z,-3.45
2023-02-09T05:34:42.274Z,-3.68
2023-02-09T05:49:45.158Z,-3.88
2023-02-09T06:04:48.417Z,-4.00
2023-02-09T06:19:51.690Z,-3.97
2023-02-09T06:34:54.777Z,-3.44
2023-02-09T06:49:57.579Z,-3.40
2023-02-09T07:05:00.544Z,-3.55
2023-02-09T07:20:05.825Z,-3.49
2023-02-09T07:35:08.601Z,-3.17
2023-02-09T07:50:11.211Z,-2.47
2023-02-09T08:06:19.469Z,-2.06
2023-02-09T08:21:41.195Z,-1.45
2023-02-09T08:36:58.417Z,-1.02
2023-02-09T08:52:01.461Z,-0.62
2023-02-09T09:07:04.584Z,-0.10
2023-02-09T09:22:07.722Z,0.17
2023-02-09T09:37:10.621Z,0.78
2023-02-09T09:52:26.359Z,0.95
2023-02-09T10:07:33.892Z,1.17
2023-02-09T10:22:36.690Z,1.49
2023-02-09T10:37:39.669Z,1.77
2023-02-09T10:53:18.305Z,2.18
2023-02-09T11:08:23.691Z,2.51
2023-02-09T11:23:52.228Z,2.67
2023-02-09T11:39:02.378Z,2.99
2023-02-09T11:54:18.065Z,3.34
2023-02-09T12:10:14.029Z,3.53
2023-02-09T12:25:40.370Z,3.80
2023-02-09T12:40:43.852Z,3.90
2023-02-09T12:56:12.137Z,3.97
2023-02-09T13:11:51.103Z,3.96
2023-02-09T13:26:59.036Z,4.08
2023-02-09T13:42:01.804Z,4.33
2023-02-09T13:57:33.372Z,4.34
2023-02-09T14:13:01.525Z,4.23
2023-02-09T14:28:04.833Z,4.34
2023-02-09T14:43:10.525Z,4.15
2023-02-09T14:58:20.717Z,3.56
2023-02-09T15:13:24.184Z,3.19
2023-02-09T15:28:27.758Z,2.87
2023-02-09T15:43:49.530Z,2.54
2023-02-09T15:58:53.978Z,2.16
2023-02-09T16:13:56.869Z,1.84
2023-02-09T16:32:39.306Z,1.44
2023-02-09T16:47:50.669Z,1.11
2023-02-09T17:03:09.723Z,0.83
2023-02-09T17:18:45.519Z,0.64
2023-02-09T17:34:08.786Z,0.91
2023-02-09T17:49:15.461Z,0.81
2023-02-09T18:04:34.009Z,0.54
2023-02-09T18:19:38.218Z,0.40
2023-02-09T18:34:42.470Z,0.29
2023-02-09T18:49:46.919Z,0.18
2023-02-09T19:05:05.706Z,0.12
2023-02-09T19:20:19.476Z,0.24
2023-02-09T19:35:24.304Z,0.26
2023-02-09T19:50:41.995Z,0.22
2023-02-09T20:05:47.420Z,0.19
2023-02-09T20:20:52.255Z,0.12
2023-02-09T20:35:56.443Z,0.06
2023-02-09T20:51:00.759Z,0.23
2023-02-09T21:21:15.464Z,0.26
2023-02-09T21:36:19.349Z,-0.01
2023-02-09T21:51:24.975Z,-0.23
2023-02-09T22:06:30.974Z,-0.38
2023-02-09T22:21:35.266Z,-0.20
2023-02-09T22:36:40.164Z,-0.18
2023-02-09T23:07:39.624Z,-0.70
2023-02-09T23:22:46.907Z,-0.68
2023-02-09T23:37:51.107Z,-0.60
2023-02-09T23:52:55.226Z,-0.83
